sensor_id;sensor_type;location;lat;lon;timestamp;P1;durP1;ratioP1;P2;durP2;ratioP2
1010;SDS011;494;48.744;10.106;2023-11-19T00:01:13;135.63;;;91.03;;
1010;SDS011;494;48.744;10.106;2023-11-19T00:03:50;141.17;;;95.63;;
1010;SDS011;494;48.744;10.106;2023-11-19T00:06:21;140.70;;;94.70;;
1010;SDS011;494;48.744;10.106;2023-11-19T00:09:09;141.43;;;89.97;;
1010;SDS011;494;48.744;10.106;2023-11-19T00:11:39;128.63;;;78.70;;
1010;SDS011;494;48.744;10.106;2023-11-19T00:14:08;138.33;;;97.60;;
1010;SDS011;494;48.744;10.106;2023-11-19T00:16:38;145.93;;;92.33;;
1010;SDS011;494;48.744;10.106;2023-11-19T00:19:09;146.03;;;104.30;;
1010;SDS011;494;48.744;10.106;2023-11-19T00:21:58;135.17;;;83.90;;
1010;SDS011;494;48.744;10.106;2023-11-19T00:24:44;141.57;;;91.80;;
1010;SDS011;494;48.744;10.106;2023-11-19T00:27:44;137.20;;;87.60;;
1010;SDS011;494;48.744;10.106;2023-11-19T00:30:29;143.87;;;100.50;;
1010;SDS011;494;48.744;10.106;2023-11-19T00:33:04;158.00;;;132.27;;
1010;SDS011;494;48.744;10.106;2023-11-19T00:35:43;237.93;;;214.73;;
1010;SDS011;494;48.744;10.106;2023-11-19T00:38:19;159.37;;;121.97;;
1010;SDS011;494;48.744;10.106;2023-11-19T00:40:54;166.53;;;139.40;;
1010;SDS011;494;48.744;10.106;2023-11-19T00:43:24;180.53;;;157.70;;
1010;SDS011;494;48.744;10.106;2023-11-19T00:45:55;177.70;;;153.47;;
1010;SDS011;494;48.744;10.106;2023-11-19T00:48:39;230.70;;;208.73;;
1010;SDS011;494;48.744;10.106;2023-11-19T00:51:19;359.73;;;329.60;;
1010;SDS011;494;48.744;10.106;2023-11-19T00:53:52;256.97;;;233.20;;
1010;SDS011;494;48.744;10.106;2023-11-19T01:06:10;478.60;;;440.67;;
1010;SDS011;494;48.744;10.106;2023-11-19T01:08:43;347.63;;;318.30;;
1010;SDS011;494;48.744;10.106;2023-11-19T01:11:19;282.20;;;257.37;;
1010;SDS011;494;48.744;10.106;2023-11-19T01:13:52;411.80;;;379.60;;
1010;SDS011;494;48.744;10.106;2023-11-19T01:16:21;418.83;;;386.03;;
1010;SDS011;494;48.744;10.106;2023-11-19T01:18:55;554.87;;;512.40;;
1010;SDS011;494;48.744;10.106;2023-11-19T01:21:41;710.43;;;655.70;;
1010;SDS011;494;48.744;10.106;2023-11-19T01:29:39;672.67;;;621.47;;
1010;SDS011;494;48.744;10.106;2023-11-19T01:32:32;646.23;;;593.90;;
1010;SDS011;494;48.744;10.106;2023-11-19T01:35:03;645.63;;;595.73;;
1010;SDS011;494;48.744;10.106;2023-11-19T01:37:38;621.60;;;572.27;;
1010;SDS011;494;48.744;10.106;2023-11-19T01:40:09;627.27;;;577.00;;
1010;SDS011;494;48.744;10.106;2023-11-19T01:42:42;601.67;;;552.97;;
1010;SDS011;494;48.744;10.106;2023-11-19T01:45:10;552.30;;;505.20;;
1010;SDS011;494;48.744;10.106;2023-11-19T01:48:00;614.47;;;561.67;;
1010;SDS011;494;48.744;10.106;2023-11-19T01:50:33;636.80;;;583.77;;
1010;SDS011;494;48.744;10.106;2023-11-19T01:53:02;645.97;;;594.47;;
1010;SDS011;494;48.744;10.106;2023-11-19T01:55:34;599.87;;;551.57;;
1010;SDS011;494;48.744;10.106;2023-11-19T02:01:02;633.40;;;581.07;;
1010;SDS011;494;48.744;10.106;2023-11-19T02:03:50;638.33;;;584.40;;
1010;SDS011;494;48.744;10.106;2023-11-19T02:06:26;646.17;;;595.00;;
1010;SDS011;494;48.744;10.106;2023-11-19T02:08:59;618.53;;;566.17;;
1010;SDS011;494;48.744;10.106;2023-11-19T02:11:36;593.53;;;543.83;;
1010;SDS011;494;48.744;10.106;2023-11-19T02:14:07;608.93;;;558.20;;
1010;SDS011;494;48.744;10.106;2023-11-19T02:16:36;602.67;;;553.27;;
1010;SDS011;494;48.744;10.106;2023-11-19T02:19:06;623.30;;;574.13;;
1010;SDS011;494;48.744;10.106;2023-11-19T02:21:39;586.73;;;536.07;;
1010;SDS011;494;48.744;10.106;2023-11-19T02:24:09;638.30;;;585.77;;
1010;SDS011;494;48.744;10.106;2023-11-19T02:26:44;618.80;;;566.60;;
1010;SDS011;494;48.744;10.106;2023-11-19T02:29:25;616.77;;;566.17;;
1010;SDS011;494;48.744;10.106;2023-11-19T02:31:57;673.80;;;615.80;;
1010;SDS011;494;48.744;10.106;2023-11-19T02:34:30;631.60;;;580.03;;
1010;SDS011;494;48.744;10.106;2023-11-19T02:37:00;636.47;;;583.73;;
1010;SDS011;494;48.744;10.106;2023-11-19T02:39:32;623.50;;;572.53;;
1010;SDS011;494;48.744;10.106;2023-11-19T02:42:03;643.97;;;591.83;;
1010;SDS011;494;48.744;10.106;2023-11-19T02:44:34;671.83;;;617.10;;
1010;SDS011;494;48.744;10.106;2023-11-19T02:47:05;667.93;;;614.40;;
1010;SDS011;494;48.744;10.106;2023-11-19T02:52:13;636.33;;;580.37;;
1010;SDS011;494;48.744;10.106;2023-11-19T02:54:42;722.40;;;655.90;;
1010;SDS011;494;48.744;10.106;2023-11-19T02:57:12;632.97;;;575.07;;
1010;SDS011;494;48.744;10.106;2023-11-19T02:59:46;630.17;;;572.30;;
1010;SDS011;494;48.744;10.106;2023-11-19T03:02:15;680.70;;;616.57;;
1010;SDS011;494;48.744;10.106;2023-11-19T03:04:45;650.23;;;592.00;;
1010;SDS011;494;48.744;10.106;2023-11-19T03:07:14;667.93;;;604.93;;
1010;SDS011;494;48.744;10.106;2023-11-19T03:09:44;745.97;;;674.03;;
1010;SDS011;494;48.744;10.106;2023-11-19T03:12:16;762.83;;;689.10;;
1010;SDS011;494;48.744;10.106;2023-11-19T03:14:46;722.53;;;654.53;;
1010;SDS011;494;48.744;10.106;2023-11-19T03:17:19;764.10;;;689.13;;
1010;SDS011;494;48.744;10.106;2023-11-19T03:19:55;755.93;;;681.63;;
1010;SDS011;494;48.744;10.106;2023-11-19T03:22:28;944.70;;;847.23;;
1010;SDS011;494;48.744;10.106;2023-11-19T03:24:56;817.37;;;734.67;;
1010;SDS011;494;48.744;10.106;2023-11-19T03:27:30;944.40;;;849.00;;
1010;SDS011;494;48.744;10.106;2023-11-19T03:30:02;570.47;;;513.37;;
1010;SDS011;494;48.744;10.106;2023-11-19T03:32:31;482.73;;;434.80;;
1010;SDS011;494;48.744;10.106;2023-11-19T03:35:06;339.20;;;305.80;;
1010;SDS011;494;48.744;10.106;2023-11-19T03:37:36;360.43;;;324.17;;
1010;SDS011;494;48.744;10.106;2023-11-19T03:40:07;481.00;;;432.67;;
1010;SDS011;494;48.744;10.106;2023-11-19T03:42:37;438.33;;;395.40;;
1010;SDS011;494;48.744;10.106;2023-11-19T03:45:11;493.17;;;445.03;;
1010;SDS011;494;48.744;10.106;2023-11-19T03:47:40;557.73;;;505.90;;
1010;SDS011;494;48.744;10.106;2023-11-19T03:50:10;567.87;;;512.03;;
1010;SDS011;494;48.744;10.106;2023-11-19T03:52:42;408.10;;;368.57;;
1010;SDS011;494;48.744;10.106;2023-11-19T03:55:13;482.67;;;434.87;;
1010;SDS011;494;48.744;10.106;2023-11-19T03:57:42;525.97;;;475.67;;
1010;SDS011;494;48.744;10.106;2023-11-19T04:00:13;464.90;;;420.60;;
1010;SDS011;494;48.744;10.106;2023-11-19T04:02:46;601.77;;;546.47;;
1010;SDS011;494;48.744;10.106;2023-11-19T04:05:15;326.87;;;294.17;;
1010;SDS011;494;48.744;10.106;2023-11-19T04:07:45;488.47;;;441.63;;
1010;SDS011;494;48.744;10.106;2023-11-19T04:10:14;398.23;;;358.07;;
1010;SDS011;494;48.744;10.106;2023-11-19T04:12:45;456.43;;;413.27;;
1010;SDS011;494;48.744;10.106;2023-11-19T04:15:16;328.73;;;296.13;;
1010;SDS011;494;48.744;10.106;2023-11-19T04:17:48;465.77;;;419.90;;
1010;SDS011;494;48.744;10.106;2023-11-19T04:20:17;384.73;;;347.77;;
1010;SDS011;494;48.744;10.106;2023-11-19T04:22:45;437.30;;;395.83;;
1010;SDS011;494;48.744;10.106;2023-11-19T04:25:14;359.97;;;326.37;;
1010;SDS011;494;48.744;10.106;2023-11-19T04:27:45;400.37;;;362.63;;
1010;SDS011;494;48.744;10.106;2023-11-19T04:30:14;366.50;;;331.67;;
1010;SDS011;494;48.744;10.106;2023-11-19T04:32:46;458.53;;;415.10;;
1010;SDS011;494;48.744;10.106;2023-11-19T04:35:18;448.10;;;405.93;;
1010;SDS011;494;48.744;10.106;2023-11-19T04:37:49;385.63;;;349.37;;
1010;SDS011;494;48.744;10.106;2023-11-19T04:40:17;496.83;;;451.13;;
1010;SDS011;494;48.744;10.106;2023-11-19T04:42:50;400.57;;;362.60;;
1010;SDS011;494;48.744;10.106;2023-11-19T04:45:24;413.40;;;374.97;;
1010;SDS011;494;48.744;10.106;2023-11-19T04:47:52;443.27;;;401.07;;
1010;SDS011;494;48.744;10.106;2023-11-19T04:50:24;400.27;;;362.50;;
1010;SDS011;494;48.744;10.106;2023-11-19T04:53:00;340.40;;;307.87;;
1010;SDS011;494;48.744;10.106;2023-11-19T04:55:30;280.63;;;253.07;;
1010;SDS011;494;48.744;10.106;2023-11-19T04:58:03;418.50;;;379.17;;
1010;SDS011;494;48.744;10.106;2023-11-19T05:00:35;479.10;;;434.80;;
1010;SDS011;494;48.744;10.106;2023-11-19T05:03:05;417.07;;;377.57;;
1010;SDS011;494;48.744;10.106;2023-11-19T05:05:34;409.70;;;371.07;;
1010;SDS011;494;48.744;10.106;2023-11-19T05:08:04;453.93;;;413.07;;
1010;SDS011;494;48.744;10.106;2023-11-19T05:11:02;419.27;;;380.67;;
1010;SDS011;494;48.744;10.106;2023-11-19T05:13:33;512.70;;;465.57;;
1010;SDS011;494;48.744;10.106;2023-11-19T05:16:04;405.90;;;369.37;;
1010;SDS011;494;48.744;10.106;2023-11-19T05:18:38;393.37;;;356.77;;
1010;SDS011;494;48.744;10.106;2023-11-19T05:21:09;419.03;;;380.37;;
1010;SDS011;494;48.744;10.106;2023-11-19T05:23:38;290.70;;;263.97;;
1010;SDS011;494;48.744;10.106;2023-11-19T05:26:08;488.73;;;444.93;;
1010;SDS011;494;48.744;10.106;2023-11-19T05:28:37;422.00;;;383.03;;
1010;SDS011;494;48.744;10.106;2023-11-19T05:31:09;385.10;;;349.60;;
1010;SDS011;494;48.744;10.106;2023-11-19T05:33:38;496.43;;;451.60;;
1010;SDS011;494;48.744;10.106;2023-11-19T05:36:07;356.60;;;322.47;;
1010;SDS011;494;48.744;10.106;2023-11-19T05:38:40;527.60;;;481.33;;
1010;SDS011;494;48.744;10.106;2023-11-19T05:41:09;342.63;;;310.27;;
1010;SDS011;494;48.744;10.106;2023-11-19T05:43:38;452.30;;;411.87;;
1010;SDS011;494;48.744;10.106;2023-11-19T05:46:10;467.80;;;426.50;;
1010;SDS011;494;48.744;10.106;2023-11-19T05:48:43;394.40;;;358.47;;
1010;SDS011;494;48.744;10.106;2023-11-19T05:51:14;380.47;;;346.07;;
1010;SDS011;494;48.744;10.106;2023-11-19T05:53:43;482.83;;;439.83;;
1010;SDS011;494;48.744;10.106;2023-11-19T05:56:13;414.33;;;376.77;;
1010;SDS011;494;48.744;10.106;2023-11-19T05:58:48;399.57;;;362.40;;
1010;SDS011;494;48.744;10.106;2023-11-19T06:01:23;403.07;;;365.83;;
1010;SDS011;494;48.744;10.106;2023-11-19T06:03:53;532.73;;;485.23;;
1010;SDS011;494;48.744;10.106;2023-11-19T06:06:22;469.87;;;427.63;;
1010;SDS011;494;48.744;10.106;2023-11-19T06:08:56;332.20;;;300.83;;
1010;SDS011;494;48.744;10.106;2023-11-19T06:11:38;419.70;;;381.87;;
1010;SDS011;494;48.744;10.106;2023-11-19T06:14:13;378.90;;;344.40;;
1010;SDS011;494;48.744;10.106;2023-11-19T06:16:43;547.70;;;499.83;;
1010;SDS011;494;48.744;10.106;2023-11-19T06:19:13;412.97;;;375.53;;
1010;SDS011;494;48.744;10.106;2023-11-19T06:21:41;503.33;;;458.17;;
1010;SDS011;494;48.744;10.106;2023-11-19T06:24:19;432.37;;;393.77;;
1010;SDS011;494;48.744;10.106;2023-11-19T06:26:48;365.97;;;333.17;;
1010;SDS011;494;48.744;10.106;2023-11-19T06:29:17;459.97;;;419.60;;
1010;SDS011;494;48.744;10.106;2023-11-19T06:31:48;343.50;;;312.70;;
1010;SDS011;494;48.744;10.106;2023-11-19T06:34:19;353.30;;;321.83;;
1010;SDS011;494;48.744;10.106;2023-11-19T06:36:50;371.57;;;338.73;;
1010;SDS011;494;48.744;10.106;2023-11-19T06:39:20;447.60;;;404.93;;
1010;SDS011;494;48.744;10.106;2023-11-19T06:41:53;417.97;;;380.73;;
1010;SDS011;494;48.744;10.106;2023-11-19T06:44:22;389.03;;;354.00;;
1010;SDS011;494;48.744;10.106;2023-11-19T06:46:53;470.63;;;430.33;;
1010;SDS011;494;48.744;10.106;2023-11-19T06:49:21;405.03;;;369.60;;
1010;SDS011;494;48.744;10.106;2023-11-19T06:51:51;414.83;;;378.90;;
1010;SDS011;494;48.744;10.106;2023-11-19T06:54:20;429.77;;;392.00;;
1010;SDS011;494;48.744;10.106;2023-11-19T06:56:50;377.73;;;344.07;;
1010;SDS011;494;48.744;10.106;2023-11-19T06:59:18;394.20;;;359.03;;
1010;SDS011;494;48.744;10.106;2023-11-19T07:01:47;403.80;;;368.53;;
1010;SDS011;494;48.744;10.106;2023-11-19T07:04:19;382.40;;;348.17;;
1010;SDS011;494;48.744;10.106;2023-11-19T07:06:48;358.17;;;327.07;;
1010;SDS011;494;48.744;10.106;2023-11-19T07:09:18;392.13;;;357.67;;
1010;SDS011;494;48.744;10.106;2023-11-19T07:11:47;415.17;;;379.23;;
1010;SDS011;494;48.744;10.106;2023-11-19T07:14:22;414.53;;;378.97;;
1010;SDS011;494;48.744;10.106;2023-11-19T07:16:51;419.70;;;383.17;;
1010;SDS011;494;48.744;10.106;2023-11-19T07:19:23;366.53;;;334.63;;
1010;SDS011;494;48.744;10.106;2023-11-19T07:21:52;386.50;;;352.70;;
1010;SDS011;494;48.744;10.106;2023-11-19T07:24:21;391.90;;;357.57;;
1010;SDS011;494;48.744;10.106;2023-11-19T07:26:51;489.30;;;447.40;;
1010;SDS011;494;48.744;10.106;2023-11-19T07:29:20;413.80;;;377.93;;
1010;SDS011;494;48.744;10.106;2023-11-19T07:31:52;431.93;;;395.40;;
1010;SDS011;494;48.744;10.106;2023-11-19T07:34:21;412.30;;;376.63;;
1010;SDS011;494;48.744;10.106;2023-11-19T07:36:53;487.97;;;445.60;;
1010;SDS011;494;48.744;10.106;2023-11-19T07:39:24;433.00;;;396.23;;
1010;SDS011;494;48.744;10.106;2023-11-19T07:41:52;356.97;;;325.80;;
1010;SDS011;494;48.744;10.106;2023-11-19T07:44:21;436.70;;;400.03;;
1010;SDS011;494;48.744;10.106;2023-11-19T07:46:51;339.27;;;309.30;;
1010;SDS011;494;48.744;10.106;2023-11-19T07:49:19;461.20;;;421.40;;
1010;SDS011;494;48.744;10.106;2023-11-19T07:51:50;433.30;;;395.73;;
1010;SDS011;494;48.744;10.106;2023-11-19T07:54:22;402.00;;;367.03;;
1010;SDS011;494;48.744;10.106;2023-11-19T07:56:54;421.70;;;385.13;;
1010;SDS011;494;48.744;10.106;2023-11-19T07:59:23;449.77;;;412.03;;
1010;SDS011;494;48.744;10.106;2023-11-19T08:01:52;370.90;;;339.27;;
1010;SDS011;494;48.744;10.106;2023-11-19T08:04:21;340.73;;;310.53;;
1010;SDS011;494;48.744;10.106;2023-11-19T08:06:49;478.83;;;437.43;;
1010;SDS011;494;48.744;10.106;2023-11-19T08:09:21;347.50;;;315.50;;
1010;SDS011;494;48.744;10.106;2023-11-19T08:11:50;456.67;;;417.57;;
1010;SDS011;494;48.744;10.106;2023-11-19T08:14:25;357.13;;;325.53;;
1010;SDS011;494;48.744;10.106;2023-11-19T08:16:54;388.33;;;355.00;;
1010;SDS011;494;48.744;10.106;2023-11-19T08:19:23;415.17;;;379.43;;
1010;SDS011;494;48.744;10.106;2023-11-19T08:21:55;409.00;;;373.57;;
1010;SDS011;494;48.744;10.106;2023-11-19T08:24:26;348.03;;;317.93;;
1010;SDS011;494;48.744;10.106;2023-11-19T08:26:55;360.77;;;328.60;;
1010;SDS011;494;48.744;10.106;2023-11-19T08:29:27;437.43;;;399.93;;
1010;SDS011;494;48.744;10.106;2023-11-19T08:31:55;367.97;;;335.83;;
1010;SDS011;494;48.744;10.106;2023-11-19T08:34:26;390.30;;;355.93;;
1010;SDS011;494;48.744;10.106;2023-11-19T08:36:55;365.63;;;334.17;;
1010;SDS011;494;48.744;10.106;2023-11-19T08:39:24;398.30;;;364.23;;
1010;SDS011;494;48.744;10.106;2023-11-19T08:41:55;417.87;;;382.23;;
1010;SDS011;494;48.744;10.106;2023-11-19T08:44:25;440.03;;;403.17;;
1010;SDS011;494;48.744;10.106;2023-11-19T08:46:56;363.63;;;332.13;;
1010;SDS011;494;48.744;10.106;2023-11-19T08:49:25;368.60;;;337.43;;
1010;SDS011;494;48.744;10.106;2023-11-19T08:51:54;452.13;;;413.40;;
1010;SDS011;494;48.744;10.106;2023-11-19T08:54:31;380.00;;;347.80;;
1010;SDS011;494;48.744;10.106;2023-11-19T08:57:02;378.23;;;346.47;;
1010;SDS011;494;48.744;10.106;2023-11-19T08:59:35;404.13;;;369.63;;
1010;SDS011;494;48.744;10.106;2023-11-19T09:02:05;408.37;;;374.13;;
1010;SDS011;494;48.744;10.106;2023-11-19T09:04:34;387.93;;;355.63;;
1010;SDS011;494;48.744;10.106;2023-11-19T09:07:03;383.23;;;351.20;;
1010;SDS011;494;48.744;10.106;2023-11-19T09:09:34;388.80;;;356.10;;
1010;SDS011;494;48.744;10.106;2023-11-19T09:12:03;404.10;;;370.83;;
1010;SDS011;494;48.744;10.106;2023-11-19T09:14:35;338.00;;;309.97;;
1010;SDS011;494;48.744;10.106;2023-11-19T09:17:04;345.70;;;318.00;;
